Details for Lufthansa Cargo at EDDF




Go Back


Latest METAR
Local Time

EDDF 201450Z 04010KT 9999 FEW036 BKN100 04/M04 Q1016 NOSIG

21/02/2018, 15:52:42

Description
Results
Lufthansa Cargo Logo
Number of Pilots based at EDDF
0 Pilots Based here
Number of Lufthansa Cargo Flights Departed from EDDF
0 Flights Departed
Number of Lufthansa Cargo Flights Arrived at EDDF
0 Flights Arrived
Number of Lufthansa Cargo Schedules Departing from EDDF
92 Schedules
Number of Lufthansa Cargo Schedules Arriving at EDDF
100 Schedules
Number of Lufthansa Cargo Schedules Departing from EDDF availible today
13 Schedules Today
Number of Lufthansa Cargo Schedules Arriving at EDDF availible today
13 Schedules Today
Average Landing Rate at EDDF
-239 fpm
Lufthansa Cargo Average Landing Rate at EDDF
0 fpm
Total Fuel Purchased at EDDF by Lufthansa Cargo
0.00 kgs / 0.00 lbs

Pilots Based at EDDF


Pilot ID
Pilot Name
Pilot Rank
No. of Flights
No. of Flying Hours
There are no pilots assigned to this hub!   Will you be the first?
Content